createdAt,value
2023-02-25T00:02:10.781Z,-0.82
2023-02-25T00:04:38.613Z,-0.76
2023-02-25T00:07:06.313Z,-0.81
2023-02-25T00:09:34.552Z,-0.95
2023-02-25T00:12:02.461Z,-0.69
2023-02-25T00:14:35.817Z,-0.73
2023-02-25T00:17:03.552Z,-0.94
2023-02-25T00:19:31.209Z,-0.81
2023-02-25T00:22:01.714Z,-1.17
2023-02-25T00:24:29.483Z,-1.48
2023-02-25T00:26:57.190Z,-1.44
2023-02-25T00:29:25.025Z,-1.56
2023-02-25T00:31:56.022Z,-1.72
2023-02-25T00:34:26.918Z,-1.60
2023-02-25T00:36:57.107Z,-2.02
2023-02-25T00:39:24.886Z,-1.80
2023-02-25T00:41:53.969Z,-1.60
2023-02-25T00:44:21.686Z,-1.49
2023-02-25T00:46:49.486Z,-1.42
2023-02-25T00:49:31.494Z,-1.29
2023-02-25T00:52:00.735Z,-1.56
2023-02-25T00:54:28.452Z,-1.92
2023-02-25T00:56:56.598Z,-1.93
2023-02-25T00:59:24.496Z,-1.92
2023-02-25T01:01:54.212Z,-1.70
2023-02-25T01:04:24.625Z,-1.79
2023-02-25T01:06:54.138Z,-1.59
2023-02-25T01:09:22.405Z,-1.44
2023-02-25T01:11:53.301Z,-1.52
2023-02-25T01:14:24.916Z,-1.70
2023-02-25T01:16:56.251Z,-1.82
2023-02-25T01:19:26.223Z,-1.82
2023-02-25T01:21:58.144Z,-1.79
2023-02-25T01:24:30.192Z,-1.70
2023-02-25T01:27:03.906Z,-1.65
2023-02-25T01:29:40.344Z,-1.75
2023-02-25T01:32:14.104Z,-1.86
2023-02-25T01:34:44.362Z,-1.69
2023-02-25T01:37:12.180Z,-1.56
2023-02-25T01:39:41.389Z,-1.74
2023-02-25T01:42:16.938Z,-1.79
2023-02-25T01:45:18.621Z,-1.42
2023-02-25T01:47:57.045Z,-1.77
2023-02-25T01:50:35.279Z,-1.65
2023-02-25T01:53:03.952Z,-1.46
2023-02-25T01:55:32.820Z,-1.25
2023-02-25T01:58:01.527Z,-1.29
2023-02-25T02:00:32.629Z,-1.07
2023-02-25T02:03:04.122Z,-1.40
2023-02-25T02:06:03.094Z,-1.58
2023-02-25T02:08:33.094Z,-1.84
2023-02-25T02:11:01.902Z,-1.81
2023-02-25T02:13:33.810Z,-1.73
2023-02-25T02:16:24.125Z,-1.48
2023-02-25T02:19:03.326Z,-1.35
2023-02-25T02:41:34.420Z,-1.58
2023-02-25T02:48:39.321Z,-2.42
2023-02-25T02:51:34.838Z,-2.08
2023-02-25T02:54:36.769Z,-2.60
2023-02-25T02:57:10.828Z,-2.41
2023-02-25T02:59:54.527Z,-2.18
2023-02-25T03:02:45.222Z,-2.42
2023-02-25T03:05:22.760Z,-2.08
2023-02-25T03:08:13.396Z,-2.31
2023-02-25T03:10:51.552Z,-2.22
2023-02-25T03:13:35.652Z,-2.21
2023-02-25T03:16:13.488Z,-1.95
2023-02-25T03:18:53.904Z,-2.56
2023-02-25T03:21:36.478Z,-2.49
2023-02-25T03:24:13.318Z,-2.61
2023-02-25T03:26:47.652Z,-2.89
2023-02-25T03:29:25.692Z,-2.60
2023-02-25T03:32:07.635Z,-2.13
2023-02-25T03:34:51.104Z,-2.30
2023-02-25T03:37:31.308Z,-1.77
2023-02-25T03:40:14.814Z,-2.16
2023-02-25T03:43:25.431Z,-1.65
2023-02-25T03:45:57.731Z,-2.09
2023-02-25T03:48:32.249Z,-1.72
2023-02-25T03:51:06.093Z,-1.79
2023-02-25T03:53:39.044Z,-2.25
2023-02-25T03:56:47.120Z,-2.36
2023-02-25T03:59:26.594Z,-2.09
2023-02-25T04:02:04.104Z,-2.44
2023-02-25T04:04:34.958Z,-2.66
2023-02-25T04:07:04.613Z,-2.45
2023-02-25T04:09:35.060Z,-1.76
2023-02-25T04:12:08.640Z,-2.31
2023-02-25T04:14:47.963Z,-2.47
2023-02-25T04:17:15.960Z,-2.05
2023-02-25T04:19:47.113Z,-1.88
2023-02-25T04:22:15.266Z,-2.48
2023-02-25T04:24:43.360Z,-2.35
2023-02-25T04:27:23.282Z,-2.71
2023-02-25T04:30:03.233Z,-2.06
2023-02-25T04:32:33.671Z,-2.51
2023-02-25T04:35:17.613Z,-2.24
2023-02-25T04:37:45.685Z,-3.06
2023-02-25T04:40:21.263Z,-2.10
2023-02-25T04:43:06.007Z,-2.53
2023-02-25T04:45:36.367Z,-2.15
2023-02-25T04:48:07.265Z,-2.25
2023-02-25T04:50:35.179Z,-2.45
2023-02-25T04:53:05.577Z,-2.52
2023-02-25T04:55:36.942Z,-3.21
2023-02-25T04:58:05.083Z,-2.76
2023-02-25T05:00:35.616Z,-3.22
2023-02-25T05:03:06.191Z,-3.36
2023-02-25T05:05:36.974Z,-3.45
2023-02-25T05:08:05.368Z,-2.96
2023-02-25T05:10:35.573Z,-3.32
2023-02-25T05:13:03.906Z,-2.99
2023-02-25T05:15:34.305Z,-2.91
2023-02-25T05:18:04.979Z,-2.98
2023-02-25T05:20:35.913Z,-3.48
2023-02-25T05:23:05.664Z,-3.05
2023-02-25T05:25:36.749Z,-3.00
2023-02-25T05:28:07.294Z,-2.72
2023-02-25T05:30:36.900Z,-3.21
2023-02-25T05:33:08.254Z,-3.11
2023-02-25T05:35:46.005Z,-3.32
2023-02-25T05:38:16.543Z,-3.20
2023-02-25T05:40:47.174Z,-2.94
2023-02-25T05:43:15.144Z,-2.97
2023-02-25T05:45:46.805Z,-2.41
2023-02-25T05:48:25.734Z,-2.82
2023-02-25T05:51:56.258Z,-2.69
2023-02-25T05:54:25.748Z,-2.79
2023-02-25T05:56:56.217Z,-3.40
2023-02-25T05:59:26.807Z,-3.49
2023-02-25T06:02:38.930Z,-3.45
2023-02-25T06:05:38.590Z,-3.22
2023-02-25T06:08:18.073Z,-3.44
2023-02-25T06:10:49.701Z,-3.22
2023-02-25T06:13:25.650Z,-3.58
2023-02-25T06:15:54.675Z,-2.96
2023-02-25T06:18:25.443Z,-3.00
2023-02-25T06:20:56.111Z,-3.65
2023-02-25T06:23:33.254Z,-3.37
2023-02-25T06:26:12.580Z,-2.38
2023-02-25T06:28:46.273Z,-3.06
2023-02-25T06:31:17.117Z,-3.14
2023-02-25T06:33:47.593Z,-3.89
2023-02-25T06:36:24.643Z,-3.37
2023-02-25T06:38:57.994Z,-3.48
2023-02-25T06:41:52.259Z,-3.55
2023-02-25T06:44:20.701Z,-3.14
2023-02-25T06:47:05.003Z,-3.15
2023-02-25T06:49:33.600Z,-2.95
2023-02-25T06:52:08.520Z,-2.70
2023-02-25T06:54:47.412Z,-3.13
2023-02-25T06:57:15.712Z,-2.81
2023-02-25T06:59:50.959Z,-3.74
2023-02-25T07:02:25.063Z,-3.50
2023-02-25T07:04:56.297Z,-3.09
2023-02-25T07:07:40.024Z,-3.31
2023-02-25T07:10:15.908Z,-3.55
2023-02-25T07:12:47.482Z,-3.43
2023-02-25T07:15:26.357Z,-3.33
2023-02-25T07:17:56.995Z,-3.07
2023-02-25T07:20:27.671Z,-2.54
2023-02-25T07:23:10.370Z,-3.31
2023-02-25T07:25:43.248Z,-2.71
2023-02-25T07:28:26.380Z,-3.73
2023-02-25T07:32:16.250Z,-3.41
2023-02-25T07:34:45.675Z,-3.79
2023-02-25T07:37:48.666Z,-4.20
2023-02-25T07:40:33.296Z,-3.84
2023-02-25T07:43:06.449Z,-3.98
2023-02-25T07:45:58.215Z,-3.97
2023-02-25T07:48:57.782Z,-3.95
2023-02-25T07:51:35.592Z,-4.01
2023-02-25T07:54:16.890Z,-3.65
2023-02-25T07:56:57.376Z,-3.87
2023-02-25T07:59:45.833Z,-4.11
2023-02-25T08:02:28.143Z,-4.27
2023-02-25T08:05:06.553Z,-3.85
2023-02-25T08:07:37.544Z,-3.29
2023-02-25T08:10:06.271Z,-3.91
2023-02-25T08:12:45.672Z,-3.40
2023-02-25T08:18:57.303Z,-3.76
2023-02-25T08:21:26.499Z,-4.35
2023-02-25T08:24:08.479Z,-3.96
2023-02-25T08:28:38.713Z,-3.97
2023-02-25T08:34:23.906Z,-4.37
2023-02-25T08:40:14.118Z,-4.47
2023-02-25T08:43:33.076Z,-3.74
2023-02-25T08:46:07.395Z,-3.70
2023-02-25T08:48:48.244Z,-4.19
2023-02-25T08:51:44.525Z,-4.09
2023-02-25T08:54:24.842Z,-3.85
2023-02-25T08:56:57.387Z,-3.73
2023-02-25T08:59:42.595Z,-4.18
2023-02-25T09:02:17.324Z,-3.95
2023-02-25T09:05:20.591Z,-3.72
2023-02-25T09:08:42.051Z,-3.69
2023-02-25T09:11:18.630Z,-3.73
2023-02-25T09:13:57.347Z,-3.88
2023-02-25T09:16:29.822Z,-3.80
2023-02-25T09:19:18.456Z,-4.37
2023-02-25T09:22:04.238Z,-3.74
2023-02-25T09:24:37.098Z,-3.83
2023-02-25T09:27:56.107Z,-3.45
2023-02-25T09:29:57.908Z,-3.74
2023-02-25T09:32:37.007Z,-3.72
2023-02-25T09:35:08.187Z,-4.24
2023-02-25T09:37:41.027Z,-3.65
2023-02-25T09:40:36.177Z,-4.05
2023-02-25T09:43:46.235Z,-2.98
2023-02-25T09:46:34.953Z,-2.82
2023-02-25T09:50:16.330Z,-3.14
2023-02-25T09:52:45.714Z,-4.07
2023-02-25T09:55:47.373Z,-3.44
2023-02-25T09:58:57.729Z,-3.70
2023-02-25T10:02:26.952Z,-3.50
2023-02-25T10:05:00.676Z,-3.64
2023-02-25T10:08:03.324Z,-4.44
2023-02-25T10:11:00.709Z,-3.63
2023-02-25T10:13:58.353Z,-3.03
2023-02-25T10:16:58.206Z,-2.94
2023-02-25T10:20:27.486Z,-3.94
2023-02-25T10:23:54.103Z,-3.75
2023-02-25T10:26:32.557Z,-4.22
2023-02-25T10:29:46.443Z,-4.03
2023-02-25T10:32:37.199Z,-2.86
2023-02-25T10:35:19.746Z,-3.08
2023-02-25T10:37:47.437Z,-2.70
2023-02-25T10:40:19.634Z,-2.74
2023-02-25T10:42:51.914Z,-3.28
2023-02-25T10:45:32.422Z,-3.26
2023-02-25T10:48:23.347Z,-2.92
2023-02-25T10:51:14.951Z,-3.40
2023-02-25T10:53:59.337Z,-3.35
2023-02-25T10:56:46.084Z,-3.68
2023-02-25T10:59:59.075Z,-3.52
2023-02-25T11:02:42.239Z,-2.82
2023-02-25T11:05:37.952Z,-3.32
2023-02-25T11:08:30.128Z,-2.55
2023-02-25T11:11:25.923Z,-3.37
2023-02-25T11:14:01.142Z,-3.62
2023-02-25T11:16:36.656Z,-3.57
2023-02-25T11:19:38.684Z,-3.59
2023-02-25T11:22:37.445Z,-3.24
2023-02-25T11:25:16.177Z,-2.84
2023-02-25T11:27:54.113Z,-3.31
2023-02-25T11:30:54.335Z,-2.21
2023-02-25T11:33:35.921Z,-3.58
2023-02-25T11:36:07.700Z,-2.35
2023-02-25T11:38:41.381Z,-3.01
2023-02-25T11:41:23.419Z,-2.60
2023-02-25T11:44:00.268Z,-2.38
2023-02-25T11:46:37.515Z,-1.13
2023-02-25T11:49:45.745Z,-1.18
2023-02-25T11:53:25.608Z,-1.31
2023-02-25T11:56:45.310Z,-3.42
2023-02-25T11:59:37.252Z,-2.43
2023-02-25T12:02:31.723Z,-1.62
2023-02-25T12:05:50.478Z,-2.74
2023-02-25T12:09:11.511Z,-0.72
2023-02-25T12:12:49.714Z,0.19
2023-02-25T12:16:11.225Z,-0.93
2023-02-25T12:19:37.309Z,0.39
2023-02-25T12:22:20.137Z,-0.45
2023-02-25T12:26:42.464Z,-2.26
2023-02-25T12:29:47.708Z,-0.73
2023-02-25T12:32:59.008Z,-1.52
2023-02-25T12:36:04.609Z,-1.39
2023-02-25T12:39:44.527Z,-3.28
2023-02-25T12:42:55.059Z,-2.67
2023-02-25T12:45:43.900Z,-3.15
2023-02-25T12:48:49.179Z,-2.11
2023-02-25T12:51:45.554Z,-2.08
2023-02-25T12:58:35.688Z,-0.97
2023-02-25T13:01:45.493Z,-0.89
2023-02-25T13:05:08.043Z,-1.38
2023-02-25T13:08:05.517Z,-0.89
2023-02-25T13:10:54.710Z,-0.47
2023-02-25T13:13:53.092Z,0.73
2023-02-25T13:16:44.919Z,-0.94
2023-02-25T13:20:39.230Z,-1.53
2023-02-25T13:23:40.419Z,-1.93
2023-02-25T13:26:58.920Z,-2.33
2023-02-25T13:29:54.455Z,-1.21
2023-02-25T13:33:18.818Z,-2.11
2023-02-25T13:36:17.817Z,-1.98
2023-02-25T13:39:47.904Z,-2.62
2023-02-25T13:43:15.416Z,-1.85
2023-02-25T13:46:11.049Z,-2.08
2023-02-25T13:49:17.256Z,-2.06
2023-02-25T13:52:17.054Z,-2.52
2023-02-25T13:55:40.277Z,-1.68
2023-02-25T13:58:38.990Z,-1.32
2023-02-25T14:01:27.688Z,-2.36
2023-02-25T14:04:42.409Z,-2.70
2023-02-25T14:07:30.879Z,-3.19
2023-02-25T14:10:23.621Z,-3.06
2023-02-25T14:13:15.309Z,-4.21
2023-02-25T14:16:20.894Z,-3.26
2023-02-25T14:19:28.598Z,-2.19
2023-02-25T14:22:17.040Z,-2.28
2023-02-25T14:25:47.133Z,-3.22
2023-02-25T14:28:54.125Z,-3.17
2023-02-25T14:31:56.209Z,-2.84
2023-02-25T14:34:37.032Z,-2.11
2023-02-25T14:37:43.433Z,-2.38
2023-02-25T14:40:49.988Z,-2.95
2023-02-25T14:43:26.924Z,-1.96
2023-02-25T14:46:29.769Z,-2.29
2023-02-25T14:49:46.192Z,-2.64
2023-02-25T14:52:30.476Z,-2.78
2023-02-25T14:55:29.481Z,-2.56
2023-02-25T14:58:18.629Z,-2.11
2023-02-25T15:01:36.956Z,-1.79
2023-02-25T15:04:12.681Z,-1.55
2023-02-25T15:07:14.404Z,-1.64
2023-02-25T15:10:31.333Z,-1.86
2023-02-25T15:13:46.375Z,-2.43
2023-02-25T15:16:38.644Z,-2.03
2023-02-25T15:19:26.315Z,-1.71
2023-02-25T15:22:29.366Z,-2.19
2023-02-25T15:25:25.724Z,-1.57
2023-02-25T15:28:04.454Z,-2.26
2023-02-25T15:31:09.231Z,-2.27
2023-02-25T15:33:56.961Z,-2.89
2023-02-25T15:36:51.895Z,-2.04
2023-02-25T15:39:44.509Z,-1.79
2023-02-25T15:42:17.289Z,-2.51
2023-02-25T15:44:48.317Z,-3.48
2023-02-25T15:50:57.927Z,-1.86
2023-02-25T15:53:26.499Z,-2.14
2023-02-25T15:56:14.213Z,-1.98
2023-02-25T15:59:02.897Z,-2.26
2023-02-25T16:01:48.035Z,-2.92
2023-02-25T16:04:51.709Z,-2.65
2023-02-25T16:07:47.204Z,-2.53
2023-02-25T16:10:46.493Z,-2.23
2023-02-25T16:13:26.640Z,-3.15
2023-02-25T16:15:57.636Z,-2.55
2023-02-25T16:18:57.762Z,-2.54
2023-02-25T16:22:02.102Z,-2.48
2023-02-25T16:24:47.692Z,-2.75
2023-02-25T16:28:26.983Z,-2.77
2023-02-25T16:31:46.053Z,-2.72
2023-02-25T16:34:40.850Z,-2.77
2023-02-25T16:37:29.704Z,-2.60
2023-02-25T16:40:06.623Z,-2.81
2023-02-25T16:42:38.298Z,-2.27
2023-02-25T16:45:24.509Z,-2.29
2023-02-25T16:48:15.623Z,-2.42
2023-02-25T16:50:48.895Z,-2.01
2023-02-25T16:53:25.572Z,-2.00
2023-02-25T16:56:06.170Z,-2.99
2023-02-25T16:58:41.220Z,-2.40
2023-02-25T17:01:27.460Z,-2.60
2023-02-25T17:04:24.882Z,-2.24
2023-02-25T17:08:10.164Z,-1.54
2023-02-25T17:10:29.038Z,-1.88
2023-02-25T17:12:59.354Z,-2.20
2023-02-25T17:15:42.739Z,-1.99
2023-02-25T17:18:48.838Z,-1.22
2023-02-25T17:21:39.267Z,-1.56
2023-02-25T17:24:16.121Z,-1.24
2023-02-25T17:26:51.620Z,-2.02
2023-02-25T17:29:36.190Z,-1.99
2023-02-25T17:32:26.094Z,-1.56
2023-02-25T17:35:06.009Z,-1.76
2023-02-25T17:37:39.815Z,-3.63
2023-02-25T17:40:18.334Z,-3.78
2023-02-25T17:42:48.886Z,-2.99
2023-02-25T17:45:41.462Z,-3.18
2023-02-25T17:48:55.612Z,-3.25
2023-02-25T17:51:37.642Z,-2.93
2023-02-25T17:54:27.877Z,-3.25
2023-02-25T17:57:18.980Z,-2.36
2023-02-25T17:59:56.837Z,-2.08
2023-02-25T18:02:50.496Z,-2.59
2023-02-25T18:06:06.820Z,-2.18
2023-02-25T18:09:04.217Z,-2.66
2023-02-25T18:11:40.078Z,-3.25
2023-02-25T18:14:48.246Z,-3.10
2023-02-25T18:17:45.869Z,-3.61
2023-02-25T18:21:27.507Z,-3.67
2023-02-25T18:24:07.858Z,-3.24
2023-02-25T18:26:38.820Z,-3.31
2023-02-25T18:29:10.396Z,-2.80
2023-02-25T18:31:46.169Z,-2.67
2023-02-25T18:34:25.678Z,-1.85
2023-02-25T18:36:56.049Z,-1.99
2023-02-25T18:39:27.214Z,-3.55
2023-02-25T18:41:59.997Z,-4.12
2023-02-25T18:44:27.841Z,-3.81
2023-02-25T18:47:07.183Z,-4.34
2023-02-25T18:49:36.467Z,-3.87
2023-02-25T18:52:39.576Z,-4.04
2023-02-25T18:58:09.234Z,-3.75
2023-02-25T18:59:49.339Z,-2.99
2023-02-25T19:03:11.462Z,-2.94
2023-02-25T19:06:38.058Z,-2.02
2023-02-25T19:09:17.932Z,-0.92
2023-02-25T19:11:48.425Z,-1.52
2023-02-25T19:14:20.074Z,-2.39
2023-02-25T19:16:49.293Z,-3.13
2023-02-25T19:19:17.441Z,-2.68
2023-02-25T19:22:01.395Z,-2.43
2023-02-25T19:24:29.515Z,-1.09
2023-02-25T19:40:47.166Z,-1.93
2023-02-25T19:45:49.128Z,-2.26
2023-02-25T21:34:58.102Z,-5.05
2023-02-25T21:37:26.913Z,-4.33
2023-02-25T21:39:57.202Z,-4.00
2023-02-25T21:44:30.180Z,-3.55
2023-02-25T21:46:58.255Z,-3.44
2023-02-25T21:49:31.670Z,-3.53
2023-02-25T21:52:20.594Z,-2.65
2023-02-25T21:55:10.171Z,-3.61
2023-02-25T21:57:38.434Z,-1.92
2023-02-25T22:00:10.462Z,-2.96
2023-02-25T22:02:45.454Z,-3.12
2023-02-25T22:05:13.399Z,-1.89
2023-02-25T22:07:59.518Z,-2.40
2023-02-25T22:10:27.824Z,-3.17
2023-02-25T22:13:00.705Z,-2.47
2023-02-25T22:15:31.269Z,-2.47
2023-02-25T22:18:03.090Z,-1.74
2023-02-25T22:20:33.864Z,-1.67
2023-02-25T22:23:09.968Z,-2.33
2023-02-25T22:25:41.973Z,-1.72
2023-02-25T22:28:09.961Z,-2.22
2023-02-25T22:30:37.703Z,-1.87
2023-02-25T22:33:08.286Z,-1.22
2023-02-25T22:35:44.822Z,-1.00
2023-02-25T22:38:18.084Z,-1.03
2023-02-25T22:40:47.268Z,-1.31
2023-02-25T22:43:16.896Z,-2.07
2023-02-25T22:45:44.967Z,-2.13
2023-02-25T22:48:12.711Z,-2.05
2023-02-25T22:50:49.441Z,-2.29
2023-02-25T22:53:20.188Z,-2.54
2023-02-25T22:55:48.016Z,-2.86
2023-02-25T22:58:18.172Z,-2.33
2023-02-25T23:01:26.393Z,-1.62
2023-02-25T23:04:11.622Z,-2.88
2023-02-25T23:06:47.694Z,-4.12
2023-02-25T23:09:21.672Z,-3.25
2023-02-25T23:11:49.474Z,-3.40
2023-02-25T23:14:19.175Z,-2.49
2023-02-25T23:16:51.115Z,-1.83
2023-02-25T23:19:19.783Z,-2.51
2023-02-25T23:21:47.521Z,-1.63
2023-02-25T23:24:18.643Z,-2.43
2023-02-25T23:26:58.854Z,-1.74
2023-02-25T23:29:36.692Z,-1.69
2023-02-25T23:32:08.528Z,-2.29
2023-02-25T23:34:39.732Z,-1.43
2023-02-25T23:37:21.405Z,-3.91
2023-02-25T23:39:57.523Z,-5.04
2023-02-25T23:45:09.436Z,-5.20
2023-02-25T23:48:56.982Z,-5.11
2023-02-25T23:51:18.568Z,-5.26
2023-02-25T23:53:56.465Z,-3.72
2023-02-25T23:56:29.220Z,-5.21
2023-02-25T23:58:57.615Z,-3.35
